sensor_id;sensor_type;location;lat;lon;timestamp;P1;durP1;ratioP1;P2;durP2;ratioP2
41693;SDS011;27377;50.666;9.150;2022-12-18T00:00:40;30.83;;;16.17;;
41693;SDS011;27377;50.666;9.150;2022-12-18T00:03:06;29.92;;;16.15;;
41693;SDS011;27377;50.666;9.150;2022-12-18T00:05:32;30.67;;;16.30;;
41693;SDS011;27377;50.666;9.150;2022-12-18T00:07:57;33.58;;;16.02;;
41693;SDS011;27377;50.666;9.150;2022-12-18T00:10:23;30.95;;;16.20;;
41693;SDS011;27377;50.666;9.150;2022-12-18T00:12:49;31.60;;;16.97;;
41693;SDS011;27377;50.666;9.150;2022-12-18T00:15:14;31.97;;;17.33;;
41693;SDS011;27377;50.666;9.150;2022-12-18T00:17:40;32.07;;;17.30;;
41693;SDS011;27377;50.666;9.150;2022-12-18T00:20:05;31.80;;;16.13;;
41693;SDS011;27377;50.666;9.150;2022-12-18T00:22:31;32.30;;;16.52;;
41693;SDS011;27377;50.666;9.150;2022-12-18T00:24:57;30.67;;;16.20;;
41693;SDS011;27377;50.666;9.150;2022-12-18T00:27:22;29.83;;;16.30;;
41693;SDS011;27377;50.666;9.150;2022-12-18T00:29:48;30.47;;;16.30;;
41693;SDS011;27377;50.666;9.150;2022-12-18T00:32:14;31.05;;;17.02;;
41693;SDS011;27377;50.666;9.150;2022-12-18T00:34:39;31.95;;;16.75;;
41693;SDS011;27377;50.666;9.150;2022-12-18T00:37:05;29.00;;;15.93;;
41693;SDS011;27377;50.666;9.150;2022-12-18T00:39:30;31.40;;;16.50;;
41693;SDS011;27377;50.666;9.150;2022-12-18T00:41:56;30.93;;;16.53;;
41693;SDS011;27377;50.666;9.150;2022-12-18T00:44:40;30.83;;;15.27;;
41693;SDS011;27377;50.666;9.150;2022-12-18T00:47:05;29.53;;;15.70;;
41693;SDS011;27377;50.666;9.150;2022-12-18T00:49:31;30.27;;;15.80;;
41693;SDS011;27377;50.666;9.150;2022-12-18T00:51:56;30.83;;;16.00;;
41693;SDS011;27377;50.666;9.150;2022-12-18T00:54:22;30.40;;;15.50;;
41693;SDS011;27377;50.666;9.150;2022-12-18T00:56:48;34.23;;;17.63;;
41693;SDS011;27377;50.666;9.150;2022-12-18T00:59:13;43.50;;;20.93;;
41693;SDS011;27377;50.666;9.150;2022-12-18T01:01:39;45.60;;;21.38;;
41693;SDS011;27377;50.666;9.150;2022-12-18T01:04:05;47.47;;;21.17;;
41693;SDS011;27377;50.666;9.150;2022-12-18T01:06:30;34.10;;;17.87;;
41693;SDS011;27377;50.666;9.150;2022-12-18T01:08:56;30.75;;;16.20;;
41693;SDS011;27377;50.666;9.150;2022-12-18T01:11:22;32.85;;;16.65;;
41693;SDS011;27377;50.666;9.150;2022-12-18T01:13:47;33.65;;;16.90;;
41693;SDS011;27377;50.666;9.150;2022-12-18T01:16:14;31.87;;;16.17;;
41693;SDS011;27377;50.666;9.150;2022-12-18T01:18:40;42.55;;;20.88;;
41693;SDS011;27377;50.666;9.150;2022-12-18T01:21:10;30.20;;;16.35;;
41693;SDS011;27377;50.666;9.150;2022-12-18T01:23:37;29.77;;;15.95;;
41693;SDS011;27377;50.666;9.150;2022-12-18T01:26:13;29.20;;;14.73;;
41693;SDS011;27377;50.666;9.150;2022-12-18T01:28:40;31.00;;;14.82;;
41693;SDS011;27377;50.666;9.150;2022-12-18T01:31:14;31.10;;;15.45;;
41693;SDS011;27377;50.666;9.150;2022-12-18T01:33:45;32.50;;;15.88;;
41693;SDS011;27377;50.666;9.150;2022-12-18T01:36:14;30.10;;;15.52;;
41693;SDS011;27377;50.666;9.150;2022-12-18T01:38:43;28.10;;;15.82;;
41693;SDS011;27377;50.666;9.150;2022-12-18T01:41:09;28.52;;;15.35;;
41693;SDS011;27377;50.666;9.150;2022-12-18T01:46:08;28.77;;;14.50;;
41693;SDS011;27377;50.666;9.150;2022-12-18T01:48:34;29.03;;;15.33;;
41693;SDS011;27377;50.666;9.150;2022-12-18T01:51:00;27.52;;;15.00;;
41693;SDS011;27377;50.666;9.150;2022-12-18T01:53:26;26.02;;;14.55;;
41693;SDS011;27377;50.666;9.150;2022-12-18T01:55:53;28.20;;;14.50;;
41693;SDS011;27377;50.666;9.150;2022-12-18T01:58:22;26.03;;;14.40;;
41693;SDS011;27377;50.666;9.150;2022-12-18T02:00:56;29.13;;;14.77;;
41693;SDS011;27377;50.666;9.150;2022-12-18T02:03:22;27.77;;;14.77;;
41693;SDS011;27377;50.666;9.150;2022-12-18T02:06:00;28.80;;;15.20;;
41693;SDS011;27377;50.666;9.150;2022-12-18T02:09:26;31.65;;;15.35;;
41693;SDS011;27377;50.666;9.150;2022-12-18T02:17:11;39.45;;;20.15;;
41693;SDS011;27377;50.666;9.150;2022-12-18T02:20:05;38.47;;;19.70;;
41693;SDS011;27377;50.666;9.150;2022-12-18T02:25:34;33.25;;;17.27;;
41693;SDS011;27377;50.666;9.150;2022-12-18T02:28:06;31.15;;;16.05;;
41693;SDS011;27377;50.666;9.150;2022-12-18T02:30:36;30.38;;;15.95;;
41693;SDS011;27377;50.666;9.150;2022-12-18T02:33:04;32.05;;;15.93;;
41693;SDS011;27377;50.666;9.150;2022-12-18T02:35:33;28.98;;;15.25;;
41693;SDS011;27377;50.666;9.150;2022-12-18T02:38:00;31.17;;;15.13;;
41693;SDS011;27377;50.666;9.150;2022-12-18T02:40:28;29.80;;;15.13;;
41693;SDS011;27377;50.666;9.150;2022-12-18T02:42:54;29.27;;;14.55;;
41693;SDS011;27377;50.666;9.150;2022-12-18T02:45:20;27.45;;;14.43;;
41693;SDS011;27377;50.666;9.150;2022-12-18T02:47:46;27.50;;;14.77;;
41693;SDS011;27377;50.666;9.150;2022-12-18T02:58:26;28.60;;;14.32;;
41693;SDS011;27377;50.666;9.150;2022-12-18T03:00:58;29.73;;;14.82;;
41693;SDS011;27377;50.666;9.150;2022-12-18T03:03:39;30.73;;;15.60;;
41693;SDS011;27377;50.666;9.150;2022-12-18T03:09:07;27.77;;;15.07;;
41693;SDS011;27377;50.666;9.150;2022-12-18T03:11:38;29.13;;;14.90;;
41693;SDS011;27377;50.666;9.150;2022-12-18T03:14:25;28.15;;;14.45;;
41693;SDS011;27377;50.666;9.150;2022-12-18T03:16:57;28.38;;;14.27;;
41693;SDS011;27377;50.666;9.150;2022-12-18T03:19:29;27.73;;;13.77;;
41693;SDS011;27377;50.666;9.150;2022-12-18T03:21:57;27.15;;;14.15;;
41693;SDS011;27377;50.666;9.150;2022-12-18T03:24:26;27.90;;;14.85;;
41693;SDS011;27377;50.666;9.150;2022-12-18T03:26:56;29.52;;;14.85;;
41693;SDS011;27377;50.666;9.150;2022-12-18T03:29:31;28.17;;;13.90;;
41693;SDS011;27377;50.666;9.150;2022-12-18T03:32:04;26.17;;;13.55;;
41693;SDS011;27377;50.666;9.150;2022-12-18T03:34:35;25.80;;;13.60;;
41693;SDS011;27377;50.666;9.150;2022-12-18T03:37:05;27.08;;;13.30;;
41693;SDS011;27377;50.666;9.150;2022-12-18T03:39:31;26.67;;;13.48;;
41693;SDS011;27377;50.666;9.150;2022-12-18T03:42:01;25.85;;;12.85;;
41693;SDS011;27377;50.666;9.150;2022-12-18T03:44:35;23.35;;;12.77;;
41693;SDS011;27377;50.666;9.150;2022-12-18T03:47:21;27.95;;;13.48;;
41693;SDS011;27377;50.666;9.150;2022-12-18T03:55:18;25.90;;;13.25;;
41693;SDS011;27377;50.666;9.150;2022-12-18T03:57:45;24.15;;;12.93;;
41693;SDS011;27377;50.666;9.150;2022-12-18T04:00:13;24.40;;;12.95;;
41693;SDS011;27377;50.666;9.150;2022-12-18T04:02:43;25.30;;;12.63;;
41693;SDS011;27377;50.666;9.150;2022-12-18T04:05:12;22.08;;;11.65;;
41693;SDS011;27377;50.666;9.150;2022-12-18T04:07:39;25.40;;;12.57;;
41693;SDS011;27377;50.666;9.150;2022-12-18T04:10:06;25.27;;;12.45;;
41693;SDS011;27377;50.666;9.150;2022-12-18T04:12:36;27.15;;;13.23;;
41693;SDS011;27377;50.666;9.150;2022-12-18T04:15:02;23.13;;;12.07;;
41693;SDS011;27377;50.666;9.150;2022-12-18T04:17:28;25.13;;;12.23;;
41693;SDS011;27377;50.666;9.150;2022-12-18T04:19:54;24.60;;;12.07;;
41693;SDS011;27377;50.666;9.150;2022-12-18T04:22:19;25.47;;;12.43;;
41693;SDS011;27377;50.666;9.150;2022-12-18T04:24:45;21.73;;;11.23;;
41693;SDS011;27377;50.666;9.150;2022-12-18T04:27:11;23.03;;;11.37;;
41693;SDS011;27377;50.666;9.150;2022-12-18T04:29:36;23.73;;;11.93;;
41693;SDS011;27377;50.666;9.150;2022-12-18T04:32:02;23.13;;;11.93;;
41693;SDS011;27377;50.666;9.150;2022-12-18T04:34:28;25.03;;;12.37;;
41693;SDS011;27377;50.666;9.150;2022-12-18T04:36:53;22.13;;;11.40;;
41693;SDS011;27377;50.666;9.150;2022-12-18T04:39:19;23.00;;;12.00;;
41693;SDS011;27377;50.666;9.150;2022-12-18T04:41:44;23.73;;;11.52;;
41693;SDS011;27377;50.666;9.150;2022-12-18T04:44:10;22.90;;;11.90;;
41693;SDS011;27377;50.666;9.150;2022-12-18T04:46:36;23.52;;;12.02;;
41693;SDS011;27377;50.666;9.150;2022-12-18T04:49:01;21.80;;;11.63;;
41693;SDS011;27377;50.666;9.150;2022-12-18T04:51:27;21.70;;;11.50;;
41693;SDS011;27377;50.666;9.150;2022-12-18T04:53:53;19.73;;;11.18;;
41693;SDS011;27377;50.666;9.150;2022-12-18T04:56:18;25.13;;;12.00;;
41693;SDS011;27377;50.666;9.150;2022-12-18T04:58:44;22.23;;;11.13;;
41693;SDS011;27377;50.666;9.150;2022-12-18T05:01:11;23.83;;;11.40;;
41693;SDS011;27377;50.666;9.150;2022-12-18T05:03:38;22.10;;;11.48;;
41693;SDS011;27377;50.666;9.150;2022-12-18T05:06:04;23.92;;;11.65;;
41693;SDS011;27377;50.666;9.150;2022-12-18T05:08:30;25.05;;;12.13;;
41693;SDS011;27377;50.666;9.150;2022-12-18T05:11:00;23.95;;;11.15;;
41693;SDS011;27377;50.666;9.150;2022-12-18T05:13:27;24.30;;;12.35;;
41693;SDS011;27377;50.666;9.150;2022-12-18T05:15:53;19.60;;;11.13;;
41693;SDS011;27377;50.666;9.150;2022-12-18T05:18:20;24.30;;;11.63;;
41693;SDS011;27377;50.666;9.150;2022-12-18T05:20:45;22.02;;;11.73;;
41693;SDS011;27377;50.666;9.150;2022-12-18T05:23:11;23.00;;;11.40;;
41693;SDS011;27377;50.666;9.150;2022-12-18T05:25:36;23.20;;;11.30;;
41693;SDS011;27377;50.666;9.150;2022-12-18T05:28:02;23.70;;;11.77;;
41693;SDS011;27377;50.666;9.150;2022-12-18T05:30:28;24.27;;;11.93;;
41693;SDS011;27377;50.666;9.150;2022-12-18T05:32:53;21.60;;;11.50;;
41693;SDS011;27377;50.666;9.150;2022-12-18T05:35:19;23.23;;;11.77;;
41693;SDS011;27377;50.666;9.150;2022-12-18T05:37:45;25.42;;;11.82;;
41693;SDS011;27377;50.666;9.150;2022-12-18T05:40:10;21.67;;;11.53;;
41693;SDS011;27377;50.666;9.150;2022-12-18T05:42:36;22.83;;;11.77;;
41693;SDS011;27377;50.666;9.150;2022-12-18T05:45:02;22.83;;;11.50;;
41693;SDS011;27377;50.666;9.150;2022-12-18T05:47:28;22.15;;;11.40;;
41693;SDS011;27377;50.666;9.150;2022-12-18T05:49:54;23.93;;;11.40;;
41693;SDS011;27377;50.666;9.150;2022-12-18T05:52:20;23.20;;;11.80;;
41693;SDS011;27377;50.666;9.150;2022-12-18T05:54:45;21.48;;;10.98;;
41693;SDS011;27377;50.666;9.150;2022-12-18T05:57:11;23.38;;;11.30;;
41693;SDS011;27377;50.666;9.150;2022-12-18T05:59:37;21.97;;;11.30;;
41693;SDS011;27377;50.666;9.150;2022-12-18T06:02:02;19.63;;;10.67;;
41693;SDS011;27377;50.666;9.150;2022-12-18T06:04:28;22.35;;;11.77;;
41693;SDS011;27377;50.666;9.150;2022-12-18T06:06:54;20.90;;;11.00;;
41693;SDS011;27377;50.666;9.150;2022-12-18T06:09:19;23.53;;;11.50;;
41693;SDS011;27377;50.666;9.150;2022-12-18T06:11:45;22.20;;;11.65;;
41693;SDS011;27377;50.666;9.150;2022-12-18T06:14:10;23.10;;;11.50;;
41693;SDS011;27377;50.666;9.150;2022-12-18T06:16:36;24.30;;;11.00;;
41693;SDS011;27377;50.666;9.150;2022-12-18T06:19:03;21.30;;;10.90;;
41693;SDS011;27377;50.666;9.150;2022-12-18T06:21:29;23.60;;;10.97;;
41693;SDS011;27377;50.666;9.150;2022-12-18T06:23:55;21.63;;;11.00;;
41693;SDS011;27377;50.666;9.150;2022-12-18T06:26:21;21.90;;;11.77;;
41693;SDS011;27377;50.666;9.150;2022-12-18T06:28:48;21.85;;;11.60;;
41693;SDS011;27377;50.666;9.150;2022-12-18T06:31:13;21.87;;;11.50;;
41693;SDS011;27377;50.666;9.150;2022-12-18T06:33:39;21.85;;;10.75;;
41693;SDS011;27377;50.666;9.150;2022-12-18T06:36:06;24.05;;;11.38;;
41693;SDS011;27377;50.666;9.150;2022-12-18T06:38:38;23.05;;;11.38;;
41693;SDS011;27377;50.666;9.150;2022-12-18T06:41:06;22.15;;;11.48;;
41693;SDS011;27377;50.666;9.150;2022-12-18T06:43:33;23.05;;;10.80;;
41693;SDS011;27377;50.666;9.150;2022-12-18T06:45:59;22.48;;;10.77;;
41693;SDS011;27377;50.666;9.150;2022-12-18T06:48:25;20.63;;;11.25;;
41693;SDS011;27377;50.666;9.150;2022-12-18T06:50:50;23.07;;;10.83;;
41693;SDS011;27377;50.666;9.150;2022-12-18T06:53:16;23.93;;;11.57;;
41693;SDS011;27377;50.666;9.150;2022-12-18T06:55:42;23.55;;;12.15;;
41693;SDS011;27377;50.666;9.150;2022-12-18T06:58:08;26.95;;;13.10;;
41693;SDS011;27377;50.666;9.150;2022-12-18T07:00:34;25.40;;;11.73;;
41693;SDS011;27377;50.666;9.150;2022-12-18T07:02:59;23.80;;;11.63;;
41693;SDS011;27377;50.666;9.150;2022-12-18T07:05:25;23.45;;;11.50;;
41693;SDS011;27377;50.666;9.150;2022-12-18T07:07:51;22.07;;;11.60;;
41693;SDS011;27377;50.666;9.150;2022-12-18T07:10:17;21.40;;;11.77;;
41693;SDS011;27377;50.666;9.150;2022-12-18T07:12:43;21.02;;;11.18;;
41693;SDS011;27377;50.666;9.150;2022-12-18T07:15:08;21.48;;;11.05;;
41693;SDS011;27377;50.666;9.150;2022-12-18T07:17:34;22.83;;;12.05;;
41693;SDS011;27377;50.666;9.150;2022-12-18T07:20:03;22.40;;;12.60;;
41693;SDS011;27377;50.666;9.150;2022-12-18T07:22:28;26.63;;;13.27;;
41693;SDS011;27377;50.666;9.150;2022-12-18T07:24:54;25.37;;;13.20;;
41693;SDS011;27377;50.666;9.150;2022-12-18T07:27:20;23.42;;;12.43;;
41693;SDS011;27377;50.666;9.150;2022-12-18T07:29:46;22.10;;;11.98;;
41693;SDS011;27377;50.666;9.150;2022-12-18T07:32:12;22.30;;;11.63;;
41693;SDS011;27377;50.666;9.150;2022-12-18T07:34:37;23.23;;;12.40;;
41693;SDS011;27377;50.666;9.150;2022-12-18T07:37:03;20.17;;;11.37;;
41693;SDS011;27377;50.666;9.150;2022-12-18T07:39:29;22.25;;;10.77;;
41693;SDS011;27377;50.666;9.150;2022-12-18T07:41:55;22.30;;;11.50;;
41693;SDS011;27377;50.666;9.150;2022-12-18T07:44:39;26.80;;;11.77;;
41693;SDS011;27377;50.666;9.150;2022-12-18T07:47:04;22.87;;;11.40;;
41693;SDS011;27377;50.666;9.150;2022-12-18T07:49:30;23.77;;;11.60;;
41693;SDS011;27377;50.666;9.150;2022-12-18T07:51:56;23.48;;;11.05;;
41693;SDS011;27377;50.666;9.150;2022-12-18T07:54:22;22.17;;;11.70;;
41693;SDS011;27377;50.666;9.150;2022-12-18T07:56:48;20.50;;;11.75;;
41693;SDS011;27377;50.666;9.150;2022-12-18T07:59:14;21.10;;;11.02;;
41693;SDS011;27377;50.666;9.150;2022-12-18T08:01:40;24.00;;;11.02;;
41693;SDS011;27377;50.666;9.150;2022-12-18T08:04:05;22.20;;;11.93;;
41693;SDS011;27377;50.666;9.150;2022-12-18T08:06:31;23.13;;;12.30;;
41693;SDS011;27377;50.666;9.150;2022-12-18T08:08:57;20.08;;;11.45;;
41693;SDS011;27377;50.666;9.150;2022-12-18T08:11:26;24.33;;;12.35;;
41693;SDS011;27377;50.666;9.150;2022-12-18T08:13:52;24.15;;;12.65;;
41693;SDS011;27377;50.666;9.150;2022-12-18T08:16:19;26.67;;;13.80;;
41693;SDS011;27377;50.666;9.150;2022-12-18T08:18:48;23.48;;;12.75;;
41693;SDS011;27377;50.666;9.150;2022-12-18T08:21:18;23.27;;;12.98;;
41693;SDS011;27377;50.666;9.150;2022-12-18T08:23:45;24.10;;;14.40;;
41693;SDS011;27377;50.666;9.150;2022-12-18T08:26:11;23.70;;;12.88;;
41693;SDS011;27377;50.666;9.150;2022-12-18T08:28:37;23.70;;;12.60;;
41693;SDS011;27377;50.666;9.150;2022-12-18T08:31:03;22.83;;;12.33;;
41693;SDS011;27377;50.666;9.150;2022-12-18T08:33:29;22.85;;;11.88;;
41693;SDS011;27377;50.666;9.150;2022-12-18T08:35:55;23.13;;;12.20;;
41693;SDS011;27377;50.666;9.150;2022-12-18T08:38:20;23.43;;;12.63;;
41693;SDS011;27377;50.666;9.150;2022-12-18T08:40:47;20.83;;;11.75;;
41693;SDS011;27377;50.666;9.150;2022-12-18T08:43:13;23.93;;;12.47;;
41693;SDS011;27377;50.666;9.150;2022-12-18T08:46:14;25.02;;;13.30;;
41693;SDS011;27377;50.666;9.150;2022-12-18T08:48:39;23.17;;;12.77;;
41693;SDS011;27377;50.666;9.150;2022-12-18T08:51:05;29.07;;;14.80;;
41693;SDS011;27377;50.666;9.150;2022-12-18T08:53:30;28.33;;;14.43;;
41693;SDS011;27377;50.666;9.150;2022-12-18T08:55:56;29.75;;;15.30;;
41693;SDS011;27377;50.666;9.150;2022-12-18T08:58:22;31.40;;;16.40;;
41693;SDS011;27377;50.666;9.150;2022-12-18T09:00:47;30.40;;;15.53;;
41693;SDS011;27377;50.666;9.150;2022-12-18T09:03:14;30.73;;;16.63;;
41693;SDS011;27377;50.666;9.150;2022-12-18T09:05:41;30.17;;;15.82;;
41693;SDS011;27377;50.666;9.150;2022-12-18T09:08:07;27.85;;;15.15;;
41693;SDS011;27377;50.666;9.150;2022-12-18T09:10:33;27.55;;;15.43;;
41693;SDS011;27377;50.666;9.150;2022-12-18T09:13:05;26.35;;;14.25;;
41693;SDS011;27377;50.666;9.150;2022-12-18T09:15:31;27.30;;;14.57;;
41693;SDS011;27377;50.666;9.150;2022-12-18T09:17:56;26.87;;;14.10;;
41693;SDS011;27377;50.666;9.150;2022-12-18T09:20:22;26.83;;;14.53;;
41693;SDS011;27377;50.666;9.150;2022-12-18T09:22:48;26.57;;;13.77;;
41693;SDS011;27377;50.666;9.150;2022-12-18T09:25:13;25.92;;;13.30;;
41693;SDS011;27377;50.666;9.150;2022-12-18T09:27:39;23.40;;;12.85;;
41693;SDS011;27377;50.666;9.150;2022-12-18T09:30:04;24.97;;;13.57;;
41693;SDS011;27377;50.666;9.150;2022-12-18T09:32:31;25.10;;;13.05;;
41693;SDS011;27377;50.666;9.150;2022-12-18T09:34:56;24.87;;;13.07;;
41693;SDS011;27377;50.666;9.150;2022-12-18T09:37:22;25.53;;;13.40;;
41693;SDS011;27377;50.666;9.150;2022-12-18T09:39:47;26.17;;;13.65;;
41693;SDS011;27377;50.666;9.150;2022-12-18T09:42:22;22.02;;;12.98;;
41693;SDS011;27377;50.666;9.150;2022-12-18T09:44:54;23.97;;;13.43;;
41693;SDS011;27377;50.666;9.150;2022-12-18T09:47:30;26.92;;;14.85;;
41693;SDS011;27377;50.666;9.150;2022-12-18T09:50:02;24.98;;;14.00;;
41693;SDS011;27377;50.666;9.150;2022-12-18T09:57:49;25.88;;;14.13;;
41693;SDS011;27377;50.666;9.150;2022-12-18T10:00:19;23.70;;;13.15;;
41693;SDS011;27377;50.666;9.150;2022-12-18T10:02:47;25.33;;;13.85;;
41693;SDS011;27377;50.666;9.150;2022-12-18T10:05:15;24.40;;;13.57;;
41693;SDS011;27377;50.666;9.150;2022-12-18T10:21:51;24.90;;;13.57;;
41693;SDS011;27377;50.666;9.150;2022-12-18T10:27:21;25.98;;;14.25;;
41693;SDS011;27377;50.666;9.150;2022-12-18T10:29:49;26.20;;;15.25;;
41693;SDS011;27377;50.666;9.150;2022-12-18T10:32:15;29.50;;;15.98;;
41693;SDS011;27377;50.666;9.150;2022-12-18T10:34:45;28.83;;;15.73;;
41693;SDS011;27377;50.666;9.150;2022-12-18T10:37:14;30.60;;;16.27;;
41693;SDS011;27377;50.666;9.150;2022-12-18T10:39:43;32.93;;;17.80;;
41693;SDS011;27377;50.666;9.150;2022-12-18T10:42:18;31.23;;;17.17;;
41693;SDS011;27377;50.666;9.150;2022-12-18T10:44:44;30.08;;;16.40;;
41693;SDS011;27377;50.666;9.150;2022-12-18T10:47:17;28.02;;;15.73;;
41693;SDS011;27377;50.666;9.150;2022-12-18T10:49:48;29.23;;;16.20;;
41693;SDS011;27377;50.666;9.150;2022-12-18T10:52:18;28.02;;;15.40;;
41693;SDS011;27377;50.666;9.150;2022-12-18T10:54:50;28.63;;;15.70;;
41693;SDS011;27377;50.666;9.150;2022-12-18T10:57:34;26.80;;;15.05;;
41693;SDS011;27377;50.666;9.150;2022-12-18T11:02:54;26.77;;;15.40;;
41693;SDS011;27377;50.666;9.150;2022-12-18T11:07:53;30.92;;;17.38;;
41693;SDS011;27377;50.666;9.150;2022-12-18T11:10:20;30.37;;;16.87;;
41693;SDS011;27377;50.666;9.150;2022-12-18T11:12:48;31.15;;;16.65;;
41693;SDS011;27377;50.666;9.150;2022-12-18T11:15:19;29.83;;;16.35;;
41693;SDS011;27377;50.666;9.150;2022-12-18T11:17:48;27.57;;;15.83;;
41693;SDS011;27377;50.666;9.150;2022-12-18T11:23:13;27.92;;;15.60;;
41693;SDS011;27377;50.666;9.150;2022-12-18T11:25:38;28.63;;;15.35;;
41693;SDS011;27377;50.666;9.150;2022-12-18T11:30:49;26.70;;;15.25;;
41693;SDS011;27377;50.666;9.150;2022-12-18T11:33:37;26.80;;;14.83;;
41693;SDS011;27377;50.666;9.150;2022-12-18T11:36:05;25.90;;;15.10;;
41693;SDS011;27377;50.666;9.150;2022-12-18T11:38:35;27.88;;;15.55;;
41693;SDS011;27377;50.666;9.150;2022-12-18T11:44:15;27.35;;;15.98;;
41693;SDS011;27377;50.666;9.150;2022-12-18T11:46:51;28.50;;;16.73;;
41693;SDS011;27377;50.666;9.150;2022-12-18T11:49:25;28.27;;;15.90;;
41693;SDS011;27377;50.666;9.150;2022-12-18T11:51:57;24.97;;;14.53;;
41693;SDS011;27377;50.666;9.150;2022-12-18T11:54:46;28.55;;;15.98;;
41693;SDS011;27377;50.666;9.150;2022-12-18T12:00:02;28.75;;;15.90;;
41693;SDS011;27377;50.666;9.150;2022-12-18T12:11:35;28.42;;;15.00;;
41693;SDS011;27377;50.666;9.150;2022-12-18T12:19:57;27.67;;;15.87;;
41693;SDS011;27377;50.666;9.150;2022-12-18T12:28:15;24.80;;;14.02;;
41693;SDS011;27377;50.666;9.150;2022-12-18T12:39:11;26.48;;;14.32;;
41693;SDS011;27377;50.666;9.150;2022-12-18T12:41:42;25.27;;;14.73;;
41693;SDS011;27377;50.666;9.150;2022-12-18T12:44:38;23.90;;;13.65;;
41693;SDS011;27377;50.666;9.150;2022-12-18T12:47:14;23.42;;;13.68;;
41693;SDS011;27377;50.666;9.150;2022-12-18T12:49:55;25.73;;;13.95;;
41693;SDS011;27377;50.666;9.150;2022-12-18T12:54:55;23.30;;;13.80;;
41693;SDS011;27377;50.666;9.150;2022-12-18T12:57:29;25.13;;;14.02;;
41693;SDS011;27377;50.666;9.150;2022-12-18T13:00:09;25.08;;;14.30;;
41693;SDS011;27377;50.666;9.150;2022-12-18T13:02:49;25.80;;;14.75;;
41693;SDS011;27377;50.666;9.150;2022-12-18T13:07:50;27.33;;;14.80;;
41693;SDS011;27377;50.666;9.150;2022-12-18T13:10:39;25.42;;;14.68;;
41693;SDS011;27377;50.666;9.150;2022-12-18T13:13:08;29.67;;;16.03;;
41693;SDS011;27377;50.666;9.150;2022-12-18T13:18:22;29.90;;;16.00;;
41693;SDS011;27377;50.666;9.150;2022-12-18T13:36:50;30.08;;;17.23;;
41693;SDS011;27377;50.666;9.150;2022-12-18T13:41:43;31.43;;;17.30;;
41693;SDS011;27377;50.666;9.150;2022-12-18T13:46:58;32.37;;;17.87;;
41693;SDS011;27377;50.666;9.150;2022-12-18T13:55:01;33.78;;;17.63;;
41693;SDS011;27377;50.666;9.150;2022-12-18T13:57:31;33.08;;;17.88;;
41693;SDS011;27377;50.666;9.150;2022-12-18T14:00:14;36.53;;;18.50;;
41693;SDS011;27377;50.666;9.150;2022-12-18T14:02:44;35.70;;;18.38;;
41693;SDS011;27377;50.666;9.150;2022-12-18T14:05:23;33.25;;;18.42;;
41693;SDS011;27377;50.666;9.150;2022-12-18T14:08:14;34.20;;;18.65;;
41693;SDS011;27377;50.666;9.150;2022-12-18T14:10:45;36.03;;;18.13;;
41693;SDS011;27377;50.666;9.150;2022-12-18T14:13:29;35.22;;;19.00;;
41693;SDS011;27377;50.666;9.150;2022-12-18T14:15:57;36.07;;;18.77;;
41693;SDS011;27377;50.666;9.150;2022-12-18T14:20:57;36.23;;;18.83;;
41693;SDS011;27377;50.666;9.150;2022-12-18T14:23:29;37.60;;;19.48;;
41693;SDS011;27377;50.666;9.150;2022-12-18T14:25:58;36.75;;;19.33;;
41693;SDS011;27377;50.666;9.150;2022-12-18T14:28:24;39.70;;;21.80;;
41693;SDS011;27377;50.666;9.150;2022-12-18T14:30:51;42.13;;;23.20;;
41693;SDS011;27377;50.666;9.150;2022-12-18T14:33:22;41.17;;;22.77;;
41693;SDS011;27377;50.666;9.150;2022-12-18T14:35:57;38.97;;;21.60;;
41693;SDS011;27377;50.666;9.150;2022-12-18T14:38:29;41.90;;;21.95;;
41693;SDS011;27377;50.666;9.150;2022-12-18T14:40:58;37.53;;;20.73;;
41693;SDS011;27377;50.666;9.150;2022-12-18T14:43:26;39.22;;;20.77;;
41693;SDS011;27377;50.666;9.150;2022-12-18T14:45:53;39.05;;;21.00;;
41693;SDS011;27377;50.666;9.150;2022-12-18T14:50:58;38.83;;;20.50;;
41693;SDS011;27377;50.666;9.150;2022-12-18T14:53:35;38.25;;;20.55;;
41693;SDS011;27377;50.666;9.150;2022-12-18T14:56:13;36.10;;;19.65;;
41693;SDS011;27377;50.666;9.150;2022-12-18T14:59:00;38.00;;;19.90;;
41693;SDS011;27377;50.666;9.150;2022-12-18T15:01:38;37.28;;;19.98;;
41693;SDS011;27377;50.666;9.150;2022-12-18T15:04:27;39.80;;;20.48;;
41693;SDS011;27377;50.666;9.150;2022-12-18T15:09:36;36.13;;;19.52;;
41693;SDS011;27377;50.666;9.150;2022-12-18T15:12:03;37.60;;;20.07;;
41693;SDS011;27377;50.666;9.150;2022-12-18T15:14:31;36.60;;;19.63;;
41693;SDS011;27377;50.666;9.150;2022-12-18T15:19:47;39.92;;;20.40;;
41693;SDS011;27377;50.666;9.150;2022-12-18T15:22:17;38.80;;;20.17;;
41693;SDS011;27377;50.666;9.150;2022-12-18T15:24:45;37.70;;;19.63;;
41693;SDS011;27377;50.666;9.150;2022-12-18T15:27:28;37.42;;;20.30;;
41693;SDS011;27377;50.666;9.150;2022-12-18T15:30:00;36.63;;;19.20;;
41693;SDS011;27377;50.666;9.150;2022-12-18T15:32:27;37.10;;;19.98;;
41693;SDS011;27377;50.666;9.150;2022-12-18T15:37:52;37.42;;;19.35;;
41693;SDS011;27377;50.666;9.150;2022-12-18T15:40:19;38.83;;;20.52;;
41693;SDS011;27377;50.666;9.150;2022-12-18T15:42:47;37.55;;;19.75;;
41693;SDS011;27377;50.666;9.150;2022-12-18T15:45:32;38.40;;;20.15;;
41693;SDS011;27377;50.666;9.150;2022-12-18T15:47:58;36.97;;;19.17;;
41693;SDS011;27377;50.666;9.150;2022-12-18T15:50:23;36.70;;;18.88;;
41693;SDS011;27377;50.666;9.150;2022-12-18T15:52:50;37.50;;;20.00;;
41693;SDS011;27377;50.666;9.150;2022-12-18T15:55:21;39.00;;;19.70;;
41693;SDS011;27377;50.666;9.150;2022-12-18T15:58:07;39.70;;;20.52;;
41693;SDS011;27377;50.666;9.150;2022-12-18T16:00:34;39.40;;;20.17;;
41693;SDS011;27377;50.666;9.150;2022-12-18T16:03:03;38.22;;;19.45;;
41693;SDS011;27377;50.666;9.150;2022-12-18T16:05:29;35.80;;;19.42;;
41693;SDS011;27377;50.666;9.150;2022-12-18T16:07:56;38.85;;;19.88;;
41693;SDS011;27377;50.666;9.150;2022-12-18T16:10:22;38.10;;;19.75;;
41693;SDS011;27377;50.666;9.150;2022-12-18T16:12:49;37.47;;;19.33;;
41693;SDS011;27377;50.666;9.150;2022-12-18T16:15:15;38.83;;;20.08;;
41693;SDS011;27377;50.666;9.150;2022-12-18T16:17:42;36.47;;;19.05;;
41693;SDS011;27377;50.666;9.150;2022-12-18T16:20:12;38.08;;;20.55;;
41693;SDS011;27377;50.666;9.150;2022-12-18T16:22:40;37.53;;;19.20;;
41693;SDS011;27377;50.666;9.150;2022-12-18T16:25:10;35.55;;;19.60;;
41693;SDS011;27377;50.666;9.150;2022-12-18T16:27:42;39.30;;;20.40;;
41693;SDS011;27377;50.666;9.150;2022-12-18T16:30:12;36.90;;;19.85;;
41693;SDS011;27377;50.666;9.150;2022-12-18T16:32:41;40.15;;;20.25;;
41693;SDS011;27377;50.666;9.150;2022-12-18T16:35:08;39.35;;;20.38;;
41693;SDS011;27377;50.666;9.150;2022-12-18T16:37:36;37.33;;;19.23;;
41693;SDS011;27377;50.666;9.150;2022-12-18T16:40:02;38.53;;;19.92;;
41693;SDS011;27377;50.666;9.150;2022-12-18T16:42:28;38.05;;;20.17;;
41693;SDS011;27377;50.666;9.150;2022-12-18T16:44:53;36.63;;;19.47;;
41693;SDS011;27377;50.666;9.150;2022-12-18T16:47:19;40.17;;;20.20;;
41693;SDS011;27377;50.666;9.150;2022-12-18T16:49:45;38.17;;;19.83;;
41693;SDS011;27377;50.666;9.150;2022-12-18T16:52:11;39.38;;;20.50;;
41693;SDS011;27377;50.666;9.150;2022-12-18T16:54:37;36.38;;;18.95;;